Säätilassa ei varoituksia.

Lähimmät METAR asemat

 

EFPO - Pori (mil/Civ), Finland
Distance from station: PLU 42km
Päivitetty: 04/08/2020 05:50
Selkeätä
Selkeätä
 Wind from E
Tuuli: E 9 km/h
Lämpötila: 12°C
Kastepiste: 12°C
Kosteus: 100%
Ilmanpaine: 1005 hPa
Yhteenveto: Selkeätä
Visibility: greater than 10 km
2020/08/04 02:50 EFPO 040250Z AUTO 18005KT CAVOK 12/12 Q1005
EFTU - Turku/Abo, Finland
Distance from station: E 68km
Päivitetty: 04/08/2020 05:50
Selkeätä
Selkeätä
 Wind from E
Tuuli: E 9 km/h
Lämpötila: 15°C
Kastepiste: 14°C
Kosteus: 94%
Ilmanpaine: 1007 hPa
Yhteenveto: Selkeätä
Visibility: greater than 10 km
2020/08/04 02:50 EFTU 040250Z AUTO 19005KT CAVOK 15/14 Q1007
 
EFTP - Tampere/Pirkkala, Finland
Distance from station: IKO 84km
Päivitetty: 04/08/2020 05:50
Enimmäkseen pilvistä
Enimmäkseen pilvistä
 Wind from E
Tuuli: E 9 km/h
Lämpötila: 13°C
Kastepiste: 12°C
Kosteus: 94%
Ilmanpaine: 1007 hPa
Clouds: Enimmäkseen pilvistä
Visibility: 10 km
Cloud details: Puolipilvistä 183 m
Enimmäkseen pilvistä 1433 m
2020/08/04 02:50 EFTP 040250Z AUTO 19005KT 160V230 9999 SCT006 BKN047 13/12 Q1007